createdAt,value
2023-01-09T00:01:30.828Z,99761.17
2023-01-09T00:03:57.690Z,99752.44
2023-01-09T00:06:24.383Z,99749.27
2023-01-09T00:08:51.138Z,99747.02
2023-01-09T00:11:17.905Z,99746.02
2023-01-09T00:13:44.721Z,99744.31
2023-01-09T00:16:11.629Z,99731.80
2023-01-09T00:18:38.928Z,99721.55
2023-01-09T00:21:08.261Z,99701.06
2023-01-09T00:23:35.717Z,99694.58
2023-01-09T00:26:03.930Z,99693.70
2023-01-09T00:28:30.680Z,99688.66
2023-01-09T00:30:59.053Z,99673.85
2023-01-09T00:33:32.601Z,99669.09
2023-01-09T00:35:59.368Z,99666.75
2023-01-09T00:38:26.185Z,99661.42
2023-01-09T00:40:54.268Z,99649.66
2023-01-09T00:43:24.166Z,99639.36
2023-01-09T00:45:51.253Z,99626.60
2023-01-09T00:48:27.005Z,99616.67
2023-01-09T00:50:57.727Z,99607.56
2023-01-09T00:53:27.812Z,99604.44
2023-01-09T00:55:58.042Z,99605.63
2023-01-09T00:58:24.948Z,99609.59
2023-01-09T01:00:51.725Z,99607.90
2023-01-09T01:03:18.606Z,99616.39
2023-01-09T01:06:04.115Z,99620.98
2023-01-09T01:08:30.891Z,99624.17
2023-01-09T01:10:57.605Z,99622.13
2023-01-09T01:13:24.397Z,99628.30
2023-01-09T01:15:51.141Z,99625.17
2023-01-09T01:18:17.955Z,99620.77
2023-01-09T01:20:45.117Z,99614.08
2023-01-09T01:23:12.099Z,99603.95
2023-01-09T01:25:42.476Z,99608.27
2023-01-09T01:28:10.602Z,99606.58
2023-01-09T01:30:42.111Z,99606.23
2023-01-09T01:33:11.022Z,99605.98
2023-01-09T01:35:37.897Z,99594.05
2023-01-09T01:38:05.103Z,99593.16
2023-01-09T01:40:32.324Z,99598.27
2023-01-09T01:42:59.121Z,99594.45
2023-01-09T01:45:28.643Z,99593.63
2023-01-09T01:48:04.061Z,99592.30
2023-01-09T01:50:58.431Z,99596.49
2023-01-09T01:53:37.513Z,99584.59
2023-01-09T01:56:21.319Z,99580.89
2023-01-09T01:58:56.241Z,99580.81
2023-01-09T02:01:25.840Z,99578.04
2023-01-09T02:03:55.675Z,99575.82
2023-01-09T02:06:22.705Z,99584.07
2023-01-09T02:08:50.164Z,99582.45
2023-01-09T02:11:18.565Z,99583.14
2023-01-09T02:13:45.685Z,99587.34
2023-01-09T02:16:37.041Z,99589.14
2023-01-09T02:19:16.914Z,99591.48
2023-01-09T02:21:50.688Z,99594.39
2023-01-09T02:24:28.291Z,99586.92
2023-01-09T02:27:20.419Z,99586.64
2023-01-09T02:30:24.845Z,99588.51
2023-01-09T02:33:29.614Z,99589.06
2023-01-09T02:36:31.741Z,99584.60
2023-01-09T02:39:11.921Z,99586.49
2023-01-09T02:41:43.407Z,99587.14
2023-01-09T02:44:37.051Z,99582.05
2023-01-09T02:47:05.875Z,99576.45
2023-01-09T02:49:35.408Z,99572.85
2023-01-09T02:52:19.091Z,99564.61
2023-01-09T02:54:54.943Z,99556.67
2023-01-09T02:57:48.391Z,99557.17
2023-01-09T03:01:12.528Z,99557.04
2023-01-09T03:03:50.059Z,99554.17
2023-01-09T03:06:56.307Z,99556.33
2023-01-09T03:09:27.566Z,99560.50
2023-01-09T03:12:00.025Z,99561.95
2023-01-09T03:14:27.072Z,99568.38
2023-01-09T03:17:00.973Z,99568.35
2023-01-09T03:19:31.376Z,99572.42
2023-01-09T03:22:00.383Z,99569.48
2023-01-09T03:24:27.412Z,99563.11
2023-01-09T03:26:57.175Z,99566.08
2023-01-09T03:29:23.927Z,99565.87
2023-01-09T03:31:51.607Z,99563.45
2023-01-09T03:34:18.527Z,99568.71
2023-01-09T03:36:45.305Z,99571.09
2023-01-09T03:39:12.050Z,99564.23
2023-01-09T03:41:38.770Z,99558.55
2023-01-09T03:44:05.442Z,99551.73
2023-01-09T03:46:32.228Z,99559.27
2023-01-09T03:48:58.945Z,99561.90
2023-01-09T03:51:25.691Z,99560.05
2023-01-09T03:53:52.398Z,99549.23
2023-01-09T03:56:19.935Z,99542.16
2023-01-09T03:58:46.688Z,99538.42
2023-01-09T04:01:13.486Z,99530.91
2023-01-09T04:03:40.368Z,99527.63
2023-01-09T04:06:07.713Z,99526.27
2023-01-09T04:08:34.347Z,99527.36
2023-01-09T04:11:01.024Z,99530.59
2023-01-09T04:13:27.754Z,99529.95
2023-01-09T04:15:54.490Z,99529.15
2023-01-09T04:18:21.246Z,99530.20
2023-01-09T04:20:48.838Z,99529.05
2023-01-09T04:23:15.987Z,99527.34
2023-01-09T04:25:42.682Z,99528.77
2023-01-09T04:28:09.525Z,99518.29
2023-01-09T04:30:36.299Z,99510.16
2023-01-09T04:33:02.995Z,99505.97
2023-01-09T04:35:29.715Z,99499.23
2023-01-09T04:37:56.400Z,99503.79
2023-01-09T04:40:23.108Z,99502.45
2023-01-09T04:42:49.908Z,99501.55
2023-01-09T04:45:17.297Z,99497.70
2023-01-09T04:47:44.626Z,99494.77
2023-01-09T04:50:12.855Z,99503.15
2023-01-09T04:52:40.220Z,99509.34
2023-01-09T04:55:08.172Z,99503.95
2023-01-09T04:57:36.019Z,99503.41
2023-01-09T05:00:05.405Z,99502.00
2023-01-09T05:02:32.111Z,99496.31
2023-01-09T05:04:58.813Z,99495.86
2023-01-09T05:07:25.523Z,99494.70
2023-01-09T05:09:52.211Z,99506.95
2023-01-09T05:12:18.969Z,99506.94
2023-01-09T05:14:45.677Z,99497.86
2023-01-09T05:17:12.448Z,99494.84
2023-01-09T05:19:39.570Z,99491.99
2023-01-09T05:22:06.427Z,99501.66
2023-01-09T05:24:33.241Z,99497.82
2023-01-09T05:27:02.648Z,99494.70
2023-01-09T05:29:29.359Z,99496.52
2023-01-09T05:31:56.347Z,99504.81
2023-01-09T05:34:23.797Z,99511.41
2023-01-09T05:36:50.432Z,99517.93
2023-01-09T05:39:16.994Z,99525.08
2023-01-09T05:41:43.646Z,99523.67
2023-01-09T05:44:10.350Z,99519.48
2023-01-09T05:46:37.074Z,99520.09
2023-01-09T05:49:03.869Z,99520.70
2023-01-09T05:51:31.989Z,99514.06
2023-01-09T05:53:59.772Z,99517.11
2023-01-09T05:56:26.487Z,99518.52
2023-01-09T05:58:53.294Z,99520.19
2023-01-09T06:01:21.715Z,99525.02
2023-01-09T06:03:49.767Z,99527.50
2023-01-09T06:06:16.511Z,99529.54
2023-01-09T06:08:43.275Z,99527.80
2023-01-09T06:11:09.967Z,99522.76
2023-01-09T06:13:36.661Z,99522.54
2023-01-09T06:16:03.642Z,99516.59
2023-01-09T06:18:30.342Z,99519.60
2023-01-09T06:20:57.039Z,99519.23
2023-01-09T06:23:23.930Z,99518.48
2023-01-09T06:25:50.644Z,99519.67
2023-01-09T06:28:17.359Z,99525.25
2023-01-09T06:30:44.195Z,99522.55
2023-01-09T06:33:10.917Z,99522.98
2023-01-09T06:35:37.665Z,99531.48
2023-01-09T06:38:04.371Z,99528.17
2023-01-09T06:40:31.116Z,99531.31
2023-01-09T06:42:57.818Z,99541.17
2023-01-09T06:45:24.556Z,99547.02
2023-01-09T06:47:51.242Z,99551.05
2023-01-09T06:50:18.411Z,99551.08
2023-01-09T06:52:45.166Z,99549.57
2023-01-09T06:55:12.384Z,99538.83
2023-01-09T06:57:39.335Z,99526.71
2023-01-09T07:00:06.673Z,99521.35
2023-01-09T07:02:33.528Z,99520.52
2023-01-09T07:05:00.263Z,99524.88
2023-01-09T07:07:26.958Z,99521.27
2023-01-09T07:09:53.711Z,99515.05
2023-01-09T07:12:20.432Z,99514.23
2023-01-09T07:14:47.137Z,99507.30
2023-01-09T07:17:14.291Z,99497.02
2023-01-09T07:19:41.113Z,99490.93
2023-01-09T07:22:08.283Z,99489.36
2023-01-09T07:24:34.997Z,99488.95
2023-01-09T07:27:02.822Z,99489.16
2023-01-09T07:29:30.119Z,99491.98
2023-01-09T07:31:57.275Z,99496.42
2023-01-09T07:34:24.030Z,99497.36
2023-01-09T07:36:51.316Z,99504.02
2023-01-09T07:39:18.228Z,99513.85
2023-01-09T07:41:45.219Z,99512.94
2023-01-09T07:44:12.768Z,99509.78
2023-01-09T07:46:41.400Z,99502.74
2023-01-09T07:49:08.185Z,99497.39
2023-01-09T07:51:35.090Z,99503.83
2023-01-09T07:54:01.787Z,99507.15
2023-01-09T07:56:28.486Z,99502.85
2023-01-09T07:58:55.221Z,99485.57
2023-01-09T08:01:22.083Z,99468.46
2023-01-09T08:03:48.856Z,99459.80
2023-01-09T08:06:15.599Z,99461.58
2023-01-09T08:08:43.252Z,99462.00
2023-01-09T08:11:10.449Z,99462.33
2023-01-09T08:13:37.248Z,99463.05
2023-01-09T08:16:04.222Z,99458.05
2023-01-09T08:18:30.955Z,99457.86
2023-01-09T08:20:57.783Z,99455.25
2023-01-09T08:23:24.488Z,99461.06
2023-01-09T08:25:53.161Z,99461.42
2023-01-09T08:28:19.860Z,99457.79
2023-01-09T08:30:47.683Z,99454.23
2023-01-09T08:33:14.469Z,99463.57
2023-01-09T08:35:43.244Z,99471.40
2023-01-09T08:38:10.836Z,99477.32
2023-01-09T08:40:37.455Z,99478.63
2023-01-09T08:43:22.753Z,99490.34
2023-01-09T08:46:08.562Z,99486.83
2023-01-09T08:48:35.407Z,99481.91
2023-01-09T08:51:02.526Z,99481.45
2023-01-09T08:53:31.614Z,99479.42
2023-01-09T08:55:59.161Z,99481.58
2023-01-09T08:58:26.236Z,99482.20
2023-01-09T09:00:52.949Z,99476.32
2023-01-09T09:03:21.883Z,99477.35
2023-01-09T09:05:48.615Z,99472.79
2023-01-09T09:08:16.612Z,99476.02
2023-01-09T09:10:43.537Z,99477.95
2023-01-09T09:13:10.358Z,99483.48
2023-01-09T09:15:38.282Z,99477.35
2023-01-09T09:18:07.231Z,99477.73
2023-01-09T09:20:36.895Z,99473.27
2023-01-09T09:23:04.529Z,99468.45
2023-01-09T09:25:31.359Z,99470.02
2023-01-09T09:27:58.110Z,99476.16
2023-01-09T09:30:25.184Z,99476.98
2023-01-09T15:33:11.422Z,98647.50
2023-01-09T15:35:46.440Z,98646.84
2023-01-09T15:38:23.593Z,98646.80
2023-01-09T15:41:08.494Z,98644.98
2023-01-09T15:43:41.622Z,98643.04
2023-01-09T15:46:10.409Z,98649.67
2023-01-09T15:48:36.412Z,98653.23
2023-01-09T15:51:09.571Z,98656.86
2023-01-09T15:53:36.274Z,98662.43
2023-01-09T15:56:11.235Z,98657.43
2023-01-09T15:58:46.389Z,98656.73
2023-01-09T16:01:33.068Z,98665.82
2023-01-09T16:04:06.361Z,98668.02
2023-01-09T16:06:36.569Z,98671.55
2023-01-09T16:09:04.784Z,98683.77
2023-01-09T16:11:38.338Z,98690.00
2023-01-09T16:14:24.120Z,98704.55
2023-01-09T16:16:52.021Z,98706.29
2023-01-09T16:19:45.660Z,98713.64
2023-01-09T16:22:22.885Z,98717.72
2023-01-09T16:24:52.912Z,98722.98
2023-01-09T16:27:23.435Z,98729.64
2023-01-09T16:29:55.267Z,98739.55
2023-01-09T16:32:29.583Z,98740.55
2023-01-09T16:35:13.864Z,98737.89
2023-01-09T16:37:39.857Z,98742.55
2023-01-09T16:40:17.712Z,98749.42
2023-01-09T16:42:59.742Z,98756.48
2023-01-09T16:45:39.499Z,98759.48
2023-01-09T16:48:21.443Z,98758.64
2023-01-09T16:50:47.555Z,98763.20
2023-01-09T16:53:23.401Z,98769.77
2023-01-09T16:55:51.865Z,98767.94
2023-01-09T16:58:30.988Z,98766.64
2023-01-09T17:00:58.065Z,98767.10
2023-01-09T17:03:24.582Z,98768.95
2023-01-09T17:05:55.981Z,98777.70
2023-01-09T17:08:25.597Z,98784.27
2023-01-09T17:10:53.893Z,98788.10
2023-01-09T17:13:19.861Z,98791.36
2023-01-09T17:15:46.117Z,98790.13
2023-01-09T17:18:17.785Z,98791.70
2023-01-09T17:20:46.608Z,98797.45
2023-01-09T17:23:12.598Z,98805.01
2023-01-09T17:25:58.565Z,98809.16
2023-01-09T17:28:32.847Z,98813.45
2023-01-09T17:31:02.990Z,98813.61
2023-01-09T17:33:29.013Z,98812.33
2023-01-09T17:35:55.978Z,98813.84
2023-01-09T17:38:22.030Z,98808.23
2023-01-09T17:40:49.832Z,98806.91
2023-01-09T17:43:18.131Z,98807.61
2023-01-09T17:45:44.745Z,98811.86
2023-01-09T17:48:21.696Z,98816.98
2023-01-09T17:50:49.046Z,98816.27
2023-01-09T17:53:17.158Z,98819.14
2023-01-09T17:55:43.142Z,98821.22
2023-01-09T17:58:25.304Z,98823.84
2023-01-09T18:00:52.114Z,98822.98
2023-01-09T18:03:20.099Z,98828.84
2023-01-09T18:05:46.194Z,98828.66
2023-01-09T18:08:12.628Z,98828.56
2023-01-09T18:10:39.741Z,98832.55
2023-01-09T18:13:06.078Z,98832.06
2023-01-09T18:15:32.165Z,98834.03
2023-01-09T18:17:58.109Z,98838.63
2023-01-09T18:20:24.908Z,98843.45
2023-01-09T18:22:51.209Z,98851.89
2023-01-09T18:25:18.440Z,98853.77
2023-01-09T18:27:44.490Z,98861.20
2023-01-09T18:30:11.055Z,98867.87
2023-01-09T18:32:38.243Z,98871.81
2023-01-09T18:35:04.511Z,98884.68
2023-01-09T18:37:30.561Z,98889.35
2023-01-09T18:39:56.519Z,98893.98
2023-01-09T18:42:22.592Z,98894.05
2023-01-09T18:44:48.756Z,98898.65
2023-01-09T18:47:14.687Z,98897.84
2023-01-09T18:49:40.676Z,98910.26
2023-01-09T18:52:07.743Z,98914.16
2023-01-09T18:54:34.006Z,98918.77
2023-01-09T18:57:00.004Z,98928.05
2023-01-09T18:59:26.023Z,98934.60
2023-01-09T19:01:51.938Z,98939.02
2023-01-09T19:04:17.888Z,98945.01
2023-01-09T19:06:43.934Z,98958.91
2023-01-09T19:09:10.718Z,98964.80
2023-01-09T19:11:36.792Z,98963.88
2023-01-09T19:14:02.801Z,98967.95
2023-01-09T19:16:28.984Z,98976.34
2023-01-09T19:18:55.042Z,98970.08
2023-01-09T19:21:23.114Z,98975.33
2023-01-09T19:23:49.062Z,98979.26
2023-01-09T19:26:19.538Z,98969.42
2023-01-09T19:28:46.875Z,98970.02
2023-01-09T19:31:13.887Z,98978.12
2023-01-09T19:33:39.932Z,98981.02
2023-01-09T19:36:06.260Z,98983.99
2023-01-09T19:38:32.228Z,98984.66
2023-01-09T19:41:08.431Z,98984.63
2023-01-09T19:43:36.079Z,98987.85
2023-01-09T19:46:06.075Z,98992.02
2023-01-09T19:48:32.116Z,98992.92
2023-01-09T19:51:02.808Z,98988.88
2023-01-09T19:53:30.136Z,98992.40
2023-01-09T19:56:11.332Z,98991.69
2023-01-09T19:58:38.417Z,98990.04
2023-01-09T20:01:09.234Z,98990.33
2023-01-09T20:03:37.205Z,98993.92
2023-01-09T20:06:05.639Z,98999.27
2023-01-09T20:08:31.652Z,98999.17
2023-01-09T20:11:02.937Z,99001.19
2023-01-09T20:13:28.911Z,99006.11
2023-01-09T20:15:58.251Z,99010.88
2023-01-09T20:18:24.245Z,99015.36
2023-01-09T20:20:51.749Z,99014.50
2023-01-09T20:23:20.876Z,99016.17
2023-01-09T20:25:47.421Z,99022.06
2023-01-09T20:28:13.435Z,99026.69
2023-01-09T20:30:41.619Z,99031.31
2023-01-09T20:33:07.570Z,99034.32
2023-01-09T20:35:33.537Z,99037.98
2023-01-09T20:37:59.443Z,99042.47
2023-01-09T20:40:25.410Z,99044.43
2023-01-09T20:42:51.592Z,99049.70
2023-01-09T20:45:17.542Z,99051.58
2023-01-09T20:47:43.456Z,99055.20
2023-01-09T20:50:10.017Z,99061.99
2023-01-09T20:52:36.146Z,99065.35
2023-01-09T20:55:03.650Z,99069.91
2023-01-09T20:57:30.077Z,99069.25
2023-01-09T20:59:55.997Z,99074.45
2023-01-09T21:02:22.046Z,99074.11
2023-01-09T21:04:48.932Z,99077.20
2023-01-09T21:07:15.371Z,99085.37
2023-01-09T21:09:41.341Z,99089.67
2023-01-09T21:12:27.211Z,99091.64
2023-01-09T21:15:04.761Z,99091.66
2023-01-09T21:17:39.575Z,99092.33
2023-01-09T21:20:12.603Z,99093.05
2023-01-09T21:22:38.919Z,99095.30
2023-01-09T21:25:05.669Z,99095.48
2023-01-09T21:27:35.065Z,99104.82
2023-01-09T21:30:02.360Z,99111.31
2023-01-09T21:32:29.678Z,99115.77
2023-01-09T21:34:55.622Z,99116.54
2023-01-09T21:37:21.570Z,99121.05
2023-01-09T21:39:47.534Z,99124.17
2023-01-09T21:42:31.944Z,99133.17
2023-01-09T21:45:16.173Z,99148.86
2023-01-09T21:47:42.118Z,99156.48
2023-01-09T21:50:08.603Z,99157.51
2023-01-09T21:52:36.266Z,99157.14
2023-01-09T21:55:02.426Z,99166.34
2023-01-09T21:57:28.509Z,99167.89
2023-01-09T21:59:54.464Z,99180.29
2023-01-09T22:02:20.407Z,99181.45
2023-01-09T22:04:48.866Z,99189.71
2023-01-09T22:07:16.148Z,99199.29
2023-01-09T22:09:44.003Z,99203.83
2023-01-09T22:12:12.973Z,99204.91
2023-01-09T22:14:39.677Z,99202.82
2023-01-09T22:17:05.895Z,99204.56
2023-01-09T22:19:31.953Z,99202.53
2023-01-09T22:21:59.253Z,99211.21
2023-01-09T22:24:25.276Z,99219.25
2023-01-09T22:26:51.175Z,99217.27
2023-01-09T22:29:17.216Z,99217.34
2023-01-09T22:31:43.213Z,99218.54
2023-01-09T22:34:14.586Z,99215.48
2023-01-09T22:36:40.786Z,99222.66
2023-01-09T22:39:06.847Z,99227.28
2023-01-09T22:41:32.906Z,99231.56
2023-01-09T22:43:59.003Z,99234.27
2023-01-09T22:46:25.046Z,99237.00
2023-01-09T22:48:50.973Z,99240.49
2023-01-09T22:51:19.432Z,99241.50
2023-01-09T22:53:46.005Z,99244.50
2023-01-09T22:56:16.984Z,99245.90
2023-01-09T22:58:43.709Z,99251.62
2023-01-09T23:01:11.479Z,99252.95
2023-01-09T23:03:38.373Z,99248.77
2023-01-09T23:06:11.941Z,99254.88
2023-01-09T23:08:38.563Z,99253.30
2023-01-09T23:11:08.255Z,99258.98
2023-01-09T23:13:34.426Z,99262.61
2023-01-09T23:16:01.122Z,99265.36
2023-01-09T23:18:27.681Z,99264.85
2023-01-09T23:20:56.130Z,99267.14
2023-01-09T23:23:24.001Z,99265.02
2023-01-09T23:25:52.179Z,99264.52
2023-01-09T23:28:18.450Z,99266.94
2023-01-09T23:30:45.235Z,99266.42
2023-01-09T23:33:12.072Z,99266.23
2023-01-09T23:35:38.078Z,99263.83
2023-01-09T23:38:04.018Z,99259.61
2023-01-09T23:40:30.102Z,99258.83
2023-01-09T23:43:11.132Z,99260.55
2023-01-09T23:45:42.577Z,99252.59
2023-01-09T23:48:13.372Z,99260.20
2023-01-09T23:50:50.493Z,99265.96
2023-01-09T23:53:18.310Z,99271.27
2023-01-09T23:55:44.312Z,99272.35
2023-01-09T23:58:10.366Z,99270.55
